createdAt,value
2018-10-19T00:03:03.085Z,63.23
2018-10-19T00:07:59.766Z,72.50
2018-10-19T00:12:56.536Z,66.90
2018-10-19T00:17:53.199Z,68.53
2018-10-19T00:22:49.945Z,71.83
2018-10-19T00:27:46.713Z,65.63
2018-10-19T00:32:43.431Z,64.23
2018-10-19T00:37:40.177Z,68.07
2018-10-19T00:42:36.941Z,66.47
2018-10-19T00:47:33.679Z,66.40
2018-10-19T00:52:30.351Z,72.23
2018-10-19T00:57:27.190Z,70.40
2018-10-19T01:02:23.924Z,71.53
2018-10-19T01:07:20.698Z,73.57
2018-10-19T01:12:17.468Z,69.97
2018-10-19T01:17:14.235Z,73.33
2018-10-19T01:22:10.896Z,81.63
2018-10-19T01:27:07.682Z,80.17
2018-10-19T01:32:04.483Z,74.63
2018-10-19T01:37:04.523Z,77.30
2018-10-19T01:42:01.214Z,72.33
2018-10-19T01:46:58.031Z,77.93
2018-10-19T01:51:54.778Z,73.70
2018-10-19T01:56:51.464Z,79.43
2018-10-19T02:01:48.141Z,71.47
2018-10-19T02:06:44.878Z,75.97
2018-10-19T02:11:41.616Z,71.63
2018-10-19T02:16:38.382Z,73.97
2018-10-19T02:21:35.168Z,70.73
2018-10-19T02:26:31.919Z,78.20
2018-10-19T02:31:28.694Z,68.67
2018-10-19T02:36:25.421Z,72.67
2018-10-19T02:41:22.113Z,72.90
2018-10-19T02:46:18.877Z,75.57
2018-10-19T02:51:15.572Z,73.50
2018-10-19T02:56:12.429Z,78.77
2018-10-19T03:01:09.154Z,75.93
2018-10-19T03:06:05.973Z,85.67
2018-10-19T03:11:02.722Z,96.37
2018-10-19T03:15:59.459Z,92.07
2018-10-19T03:20:56.230Z,91.80
2018-10-19T03:25:52.881Z,94.13
2018-10-19T03:30:49.667Z,93.80
2018-10-19T03:35:46.443Z,90.37
2018-10-19T03:40:43.211Z,88.57
2018-10-19T03:45:39.946Z,87.23
2018-10-19T03:50:36.708Z,86.17
2018-10-19T03:55:33.590Z,81.90
2018-10-19T04:00:30.271Z,88.70
2018-10-19T04:05:27.114Z,81.97
2018-10-19T04:10:23.831Z,77.63
2018-10-19T04:15:20.508Z,79.83
2018-10-19T04:20:17.170Z,81.77
2018-10-19T04:25:13.905Z,86.13
2018-10-19T04:30:10.622Z,79.87
2018-10-19T04:35:07.433Z,79.90
2018-10-19T04:40:04.677Z,78.30
2018-10-19T04:45:01.458Z,77.63
2018-10-19T04:49:58.118Z,81.33
2018-10-19T04:54:54.828Z,78.90
2018-10-19T04:59:51.532Z,80.77
2018-10-19T05:04:48.311Z,70.93
2018-10-19T05:09:45.024Z,75.37
2018-10-19T05:14:41.717Z,85.70
2018-10-19T05:19:38.458Z,80.93
2018-10-19T05:24:35.201Z,82.13
2018-10-19T05:29:31.888Z,78.23
2018-10-19T05:34:28.564Z,77.13
2018-10-19T05:39:25.247Z,76.90
2018-10-19T05:44:22.023Z,71.57
2018-10-19T05:49:18.781Z,164.47
2018-10-19T05:54:15.469Z,305.67
2018-10-19T05:59:12.505Z,272.30
2018-10-19T06:04:09.341Z,431.47
2018-10-19T06:09:06.408Z,352.50
2018-10-19T06:14:03.216Z,289.40
2018-10-19T06:19:00.002Z,471.03
2018-10-19T06:23:57.126Z,386.73
2018-10-19T06:28:53.916Z,311.80
2018-10-19T06:33:50.660Z,330.00
2018-10-19T06:38:47.323Z,97.87
2018-10-19T06:43:44.081Z,99.60
2018-10-19T06:48:40.772Z,111.50
2018-10-19T06:53:37.539Z,126.53
2018-10-19T06:58:34.388Z,63.93
2018-10-19T07:03:31.121Z,64.80
2018-10-19T07:08:27.968Z,86.60
2018-10-19T07:13:24.596Z,89.77
2018-10-19T07:18:21.318Z,65.90
2018-10-19T07:23:18.044Z,103.50
2018-10-19T07:28:14.731Z,64.63
2018-10-19T07:33:11.787Z,119.53
2018-10-19T07:38:08.544Z,63.93
2018-10-19T07:43:05.393Z,57.83
2018-10-19T07:48:02.443Z,108.03
2018-10-19T07:52:58.955Z,52.30
2018-10-19T07:57:55.752Z,60.77
2018-10-19T08:02:52.598Z,51.07
2018-10-19T08:07:49.253Z,55.90
2018-10-19T08:12:46.112Z,55.57
2018-10-19T08:17:42.906Z,60.23
2018-10-19T08:22:39.888Z,46.92
2018-10-19T08:27:36.597Z,53.20
2018-10-19T08:32:33.337Z,47.62
2018-10-19T08:37:30.046Z,48.68
2018-10-19T08:42:26.713Z,48.58
2018-10-19T08:47:23.553Z,45.98
2018-10-19T08:52:20.304Z,44.98
2018-10-19T08:57:17.119Z,44.48
2018-10-19T09:02:13.803Z,53.17
2018-10-19T09:07:10.587Z,44.20
2018-10-19T09:12:07.318Z,49.83
2018-10-19T09:17:04.338Z,46.05
2018-10-19T09:22:01.094Z,47.03
2018-10-19T09:26:57.877Z,49.10
2018-10-19T09:31:54.659Z,47.60
2018-10-19T09:36:51.524Z,50.48
2018-10-19T09:41:48.175Z,47.60
2018-10-19T09:46:44.909Z,48.73
2018-10-19T09:51:41.998Z,49.45
2018-10-19T09:56:38.775Z,48.85
2018-10-19T10:01:35.930Z,49.95
2018-10-19T10:06:32.676Z,47.75
2018-10-19T10:11:29.408Z,48.08
2018-10-19T10:16:26.073Z,45.23
2018-10-19T10:21:22.758Z,43.02
2018-10-19T10:26:19.503Z,41.25
2018-10-19T10:31:16.200Z,41.88
2018-10-19T10:36:12.947Z,40.12
2018-10-19T10:41:09.643Z,40.00
2018-10-19T10:46:06.463Z,39.00
2018-10-19T10:51:03.128Z,40.03
2018-10-19T10:55:59.877Z,39.18
2018-10-19T11:00:56.858Z,38.40
2018-10-19T11:05:53.560Z,41.60
2018-10-19T11:10:50.323Z,38.02
2018-10-19T11:15:47.024Z,39.88
2018-10-19T11:20:43.813Z,48.58
2018-10-19T11:25:40.553Z,39.67
2018-10-19T11:30:37.296Z,37.85
2018-10-19T11:35:33.980Z,34.78
2018-10-19T11:40:32.349Z,36.38
2018-10-19T11:45:30.397Z,36.63
2018-10-19T11:50:27.135Z,38.38
2018-10-19T11:55:23.871Z,38.13
2018-10-19T12:00:20.679Z,41.53
2018-10-19T12:05:17.648Z,41.25
2018-10-19T12:10:14.814Z,39.95
2018-10-19T12:15:12.951Z,37.15
2018-10-19T12:20:11.485Z,34.73
2018-10-19T12:25:09.048Z,34.95
2018-10-19T12:30:06.045Z,31.68
2018-10-19T12:35:02.843Z,30.92
2018-10-19T12:39:59.619Z,32.65
2018-10-19T12:44:56.442Z,30.70
2018-10-19T12:49:53.077Z,33.67
2018-10-19T12:54:49.868Z,36.25
2018-10-19T12:59:46.638Z,34.38
2018-10-19T13:04:43.413Z,35.08
2018-10-19T13:09:40.347Z,35.35
2018-10-19T13:14:43.859Z,34.58
2018-10-19T13:19:40.624Z,36.33
2018-10-19T13:24:37.348Z,33.48
2018-10-19T13:29:34.140Z,33.88
2018-10-19T13:34:30.850Z,35.75
2018-10-19T13:39:27.516Z,38.35
2018-10-19T13:44:24.268Z,38.28
2018-10-19T13:49:21.189Z,36.85
2018-10-19T13:54:17.885Z,36.17
2018-10-19T13:59:14.662Z,37.35
2018-10-19T14:04:11.362Z,35.45
2018-10-19T14:09:09.055Z,34.35
2018-10-19T14:14:05.772Z,35.92
2018-10-19T14:19:02.645Z,40.23
2018-10-19T14:23:59.518Z,38.28
2018-10-19T14:28:56.318Z,34.88
2018-10-19T14:33:52.951Z,38.95
2018-10-19T14:38:49.668Z,36.40
2018-10-19T14:43:46.463Z,36.83
2018-10-19T14:48:43.210Z,39.53
2018-10-19T14:53:39.954Z,41.45
2018-10-19T14:58:36.628Z,38.78
2018-10-19T15:03:33.484Z,39.27
2018-10-19T15:08:30.159Z,41.77
2018-10-19T15:13:26.889Z,42.13
2018-10-19T15:18:23.668Z,38.10
2018-10-19T15:23:20.372Z,38.93
2018-10-19T15:28:17.074Z,39.23
2018-10-19T15:33:13.904Z,38.90
2018-10-19T15:38:10.643Z,38.67
2018-10-19T15:43:07.384Z,43.37
2018-10-19T15:48:05.024Z,46.57
2018-10-19T15:53:01.784Z,48.13
2018-10-19T15:57:58.507Z,48.50
2018-10-19T16:02:55.275Z,47.30
2018-10-19T16:07:51.978Z,44.63
2018-10-19T16:12:48.674Z,47.47
2018-10-19T16:17:45.373Z,44.97
2018-10-19T16:22:42.138Z,49.13
2018-10-19T16:27:39.171Z,57.33
2018-10-19T16:32:36.309Z,47.77
2018-10-19T16:37:32.986Z,52.63
2018-10-19T16:42:29.767Z,44.63
2018-10-19T16:47:26.521Z,47.73
2018-10-19T16:52:23.282Z,44.37
2018-10-19T16:57:20.045Z,42.63
2018-10-19T17:02:16.855Z,42.27
2018-10-19T17:07:13.634Z,40.93
2018-10-19T17:12:10.487Z,46.40
2018-10-19T17:17:07.162Z,42.93
2018-10-19T17:22:04.376Z,42.30
2018-10-19T17:27:01.203Z,45.93
2018-10-19T17:31:57.890Z,48.77
2018-10-19T17:36:54.694Z,52.33
2018-10-19T17:41:51.471Z,51.27
2018-10-19T17:46:48.124Z,46.23
2018-10-19T17:51:44.844Z,46.87
2018-10-19T17:56:41.841Z,47.93
2018-10-19T18:01:38.525Z,46.03
2018-10-19T18:06:35.295Z,49.93
2018-10-19T18:11:32.113Z,53.10
2018-10-19T18:16:28.789Z,51.77
2018-10-19T18:21:25.521Z,67.30
2018-10-19T18:26:22.136Z,80.10
2018-10-19T18:31:18.874Z,63.37
2018-10-19T18:36:15.575Z,55.70
2018-10-19T18:41:12.487Z,68.53
2018-10-19T18:46:09.106Z,64.27
2018-10-19T18:51:05.926Z,56.03
2018-10-19T18:56:02.681Z,50.67
2018-10-19T19:00:59.376Z,56.77
2018-10-19T19:05:56.322Z,58.07
2018-10-19T19:10:53.169Z,54.63
2018-10-19T19:15:49.908Z,55.33
2018-10-19T19:20:46.666Z,53.53
2018-10-19T19:25:49.027Z,56.83
2018-10-19T19:30:45.740Z,58.27
2018-10-19T19:35:42.670Z,58.17
2018-10-19T19:40:45.239Z,60.67
2018-10-19T19:45:41.931Z,62.03
2018-10-19T19:50:38.693Z,61.10
2018-10-19T19:55:35.443Z,55.97
2018-10-19T20:00:32.174Z,61.97
2018-10-19T20:05:28.853Z,61.93
2018-10-19T20:10:25.621Z,60.53
2018-10-19T20:15:22.357Z,65.77
2018-10-19T20:20:19.094Z,64.23
2018-10-19T20:25:15.842Z,66.83
2018-10-19T20:30:13.262Z,75.33
2018-10-19T20:35:10.173Z,71.83
2018-10-19T20:40:06.863Z,70.80
2018-10-19T20:45:04.269Z,72.20
2018-10-19T20:50:01.086Z,71.20
2018-10-19T20:54:57.767Z,72.57
2018-10-19T20:59:54.529Z,78.93
2018-10-19T21:04:51.178Z,72.07
2018-10-19T21:09:47.912Z,75.90
2018-10-19T21:14:44.680Z,75.03
2018-10-19T21:19:41.550Z,72.87
2018-10-19T21:24:38.329Z,79.53
2018-10-19T21:29:35.010Z,78.87
2018-10-19T21:34:31.783Z,72.90
2018-10-19T21:39:28.588Z,73.27
2018-10-19T21:44:25.407Z,73.60
2018-10-19T21:49:22.138Z,70.40
2018-10-19T21:54:18.964Z,75.57
2018-10-19T21:59:15.759Z,78.87
2018-10-19T22:04:12.648Z,70.60
2018-10-19T22:09:11.095Z,75.60
2018-10-19T22:14:08.340Z,69.43
2018-10-19T22:19:05.460Z,70.07
2018-10-19T22:24:02.278Z,67.03
2018-10-19T22:28:59.074Z,64.23
2018-10-19T22:33:55.742Z,68.20
2018-10-19T22:38:52.672Z,69.73
2018-10-19T22:43:49.827Z,66.40
2018-10-19T22:48:46.567Z,70.53
2018-10-19T22:53:43.264Z,63.10
2018-10-19T22:58:40.460Z,63.73
2018-10-19T23:03:37.151Z,67.23
2018-10-19T23:08:33.884Z,64.37
2018-10-19T23:13:30.658Z,66.23
2018-10-19T23:18:27.349Z,61.80
2018-10-19T23:23:24.034Z,67.43
2018-10-19T23:28:20.827Z,67.43
2018-10-19T23:33:17.523Z,71.03
2018-10-19T23:38:14.232Z,65.63
2018-10-19T23:43:11.041Z,62.13
2018-10-19T23:48:07.738Z,69.43
2018-10-19T23:53:04.633Z,64.70
2018-10-19T23:58:01.340Z,66.63
